aviador You're here:

UMKK Decoded Metar

KALININGRAD in RUSSIA
Report Time2018-05-25 20:00:00
UTC Time2018-05-25 20:39:03
Flight Rules vfr VFR
Wind080° at 4 kt
W.Decomp.*RWY 06: 3.8 kt HW 1.1 kt RCW
W.Rank080° ranks 28
Current wind is below 080° avg. (6.5)
Visibility9999 m
Phenomena:N/A
Clouds:Broken CB 037 Hf
Expected CloudBase > 1,600 ft AGL from Temp-Dew spread
Ceiling3,700 ft
Temp18°C (ISA +3)
Dew Point14°C (78% RH)
AAT17.9°C
QNH1023 hPa
Density Alt315 ft
Elevation69 ft
Report Wrong Elevation
Raw Report
METAR UMKK 252000Z 08002MPS 050V110 9999 BKN037CB 18/14 Q1023 R06/29//55
NOSIG RMK QFE766/1021=

Extra information for UMKK:More info

Metar Taf Metar & Taf Last 4 Metars F.Rules Stats Wind Profile Meteogram Temp Stats Airport Information Weather charts Add Link Nearby VenuesMetar ALERT Operation Metar Decoded Social comments